sensor_id;sensor_type;location;lat;lon;timestamp;P1;durP1;ratioP1;P2;durP2;ratioP2
77738;SDS011;66904;59.926;30.404;2024-02-21T00:04:45;1.15;;;0.38;;
77738;SDS011;66904;59.926;30.404;2024-02-21T00:09:56;0.95;;;0.40;;
77738;SDS011;66904;59.926;30.404;2024-02-21T00:15:07;1.52;;;0.50;;
77738;SDS011;66904;59.926;30.404;2024-02-21T00:20:18;1.65;;;0.55;;
77738;SDS011;66904;59.926;30.404;2024-02-21T00:25:28;0.50;;;0.20;;
77738;SDS011;66904;59.926;30.404;2024-02-21T00:30:39;0.15;;;0.00;;
77738;SDS011;66904;59.926;30.404;2024-02-21T00:35:50;2.15;;;0.63;;
77738;SDS011;66904;59.926;30.404;2024-02-21T00:41:00;0.73;;;0.25;;
77738;SDS011;66904;59.926;30.404;2024-02-21T00:46:11;0.15;;;0.15;;
77738;SDS011;66904;59.926;30.404;2024-02-21T00:51:22;1.15;;;0.40;;
77738;SDS011;66904;59.926;30.404;2024-02-21T00:56:33;0.10;;;0.10;;
77738;SDS011;66904;59.926;30.404;2024-02-21T01:01:44;0.93;;;0.40;;
77738;SDS011;66904;59.926;30.404;2024-02-21T01:06:54;0.40;;;0.15;;
77738;SDS011;66904;59.926;30.404;2024-02-21T01:12:05;1.55;;;0.65;;
77738;SDS011;66904;59.926;30.404;2024-02-21T01:17:16;0.20;;;0.08;;
77738;SDS011;66904;59.926;30.404;2024-02-21T01:22:27;0.60;;;0.40;;
77738;SDS011;66904;59.926;30.404;2024-02-21T01:27:38;0.22;;;0.10;;
77738;SDS011;66904;59.926;30.404;2024-02-21T01:32:49;2.25;;;0.50;;
77738;SDS011;66904;59.926;30.404;2024-02-21T01:38:00;0.75;;;0.40;;
77738;SDS011;66904;59.926;30.404;2024-02-21T01:43:17;0.22;;;0.08;;
77738;SDS011;66904;59.926;30.404;2024-02-21T01:48:30;0.30;;;0.13;;
77738;SDS011;66904;59.926;30.404;2024-02-21T01:53:43;2.17;;;0.68;;
77738;SDS011;66904;59.926;30.404;2024-02-21T01:58:55;1.70;;;0.50;;
77738;SDS011;66904;59.926;30.404;2024-02-21T02:04:06;1.90;;;0.38;;
77738;SDS011;66904;59.926;30.404;2024-02-21T02:09:17;1.80;;;0.52;;
77738;SDS011;66904;59.926;30.404;2024-02-21T02:14:28;0.30;;;0.20;;
77738;SDS011;66904;59.926;30.404;2024-02-21T02:19:39;4.68;;;0.50;;
77738;SDS011;66904;59.926;30.404;2024-02-21T02:24:49;2.13;;;0.40;;
77738;SDS011;66904;59.926;30.404;2024-02-21T02:30:00;0.45;;;0.15;;
77738;SDS011;66904;59.926;30.404;2024-02-21T02:35:12;0.73;;;0.28;;
77738;SDS011;66904;59.926;30.404;2024-02-21T02:40:23;0.38;;;0.15;;
77738;SDS011;66904;59.926;30.404;2024-02-21T02:45:35;0.70;;;0.50;;
77738;SDS011;66904;59.926;30.404;2024-02-21T02:50:45;1.35;;;0.65;;
77738;SDS011;66904;59.926;30.404;2024-02-21T02:55:56;1.45;;;0.50;;
77738;SDS011;66904;59.926;30.404;2024-02-21T03:01:07;0.65;;;0.38;;
77738;SDS011;66904;59.926;30.404;2024-02-21T03:06:18;1.23;;;0.40;;
77738;SDS011;66904;59.926;30.404;2024-02-21T03:11:29;1.35;;;0.50;;
77738;SDS011;66904;59.926;30.404;2024-02-21T03:16:39;0.50;;;0.13;;
77738;SDS011;66904;59.926;30.404;2024-02-21T03:21:50;0.93;;;0.63;;
77738;SDS011;66904;59.926;30.404;2024-02-21T03:27:01;1.20;;;0.28;;
77738;SDS011;66904;59.926;30.404;2024-02-21T03:32:14;1.35;;;0.30;;
77738;SDS011;66904;59.926;30.404;2024-02-21T03:37:24;0.35;;;0.17;;
77738;SDS011;66904;59.926;30.404;2024-02-21T03:42:35;1.25;;;0.40;;
77738;SDS011;66904;59.926;30.404;2024-02-21T03:47:46;0.93;;;0.28;;
77738;SDS011;66904;59.926;30.404;2024-02-21T03:52:57;0.73;;;0.28;;
77738;SDS011;66904;59.926;30.404;2024-02-21T03:58:08;0.52;;;0.22;;
77738;SDS011;66904;59.926;30.404;2024-02-21T04:03:18;0.57;;;0.38;;
77738;SDS011;66904;59.926;30.404;2024-02-21T04:08:30;0.63;;;0.32;;
77738;SDS011;66904;59.926;30.404;2024-02-21T04:13:40;0.57;;;0.32;;
77738;SDS011;66904;59.926;30.404;2024-02-21T04:18:51;0.80;;;0.38;;
77738;SDS011;66904;59.926;30.404;2024-02-21T04:24:02;0.60;;;0.20;;
77738;SDS011;66904;59.926;30.404;2024-02-21T04:29:15;0.40;;;0.20;;
77738;SDS011;66904;59.926;30.404;2024-02-21T04:34:26;1.00;;;0.50;;
77738;SDS011;66904;59.926;30.404;2024-02-21T04:39:36;0.63;;;0.30;;
77738;SDS011;66904;59.926;30.404;2024-02-21T04:44:47;1.00;;;0.57;;
77738;SDS011;66904;59.926;30.404;2024-02-21T04:49:58;1.10;;;0.28;;
77738;SDS011;66904;59.926;30.404;2024-02-21T04:55:09;0.65;;;0.25;;
77738;SDS011;66904;59.926;30.404;2024-02-21T05:00:19;0.50;;;0.28;;
77738;SDS011;66904;59.926;30.404;2024-02-21T05:05:30;0.80;;;0.28;;
77738;SDS011;66904;59.926;30.404;2024-02-21T05:10:41;0.15;;;0.05;;
77738;SDS011;66904;59.926;30.404;2024-02-21T05:15:52;0.28;;;0.17;;
77738;SDS011;66904;59.926;30.404;2024-02-21T05:21:03;0.45;;;0.10;;
77738;SDS011;66904;59.926;30.404;2024-02-21T05:26:21;0.15;;;0.08;;
77738;SDS011;66904;59.926;30.404;2024-02-21T05:37:01;0.32;;;0.30;;
77738;SDS011;66904;59.926;30.404;2024-02-21T05:42:12;0.47;;;0.28;;
77738;SDS011;66904;59.926;30.404;2024-02-21T05:47:23;0.65;;;0.20;;
77738;SDS011;66904;59.926;30.404;2024-02-21T05:52:33;0.70;;;0.30;;
77738;SDS011;66904;59.926;30.404;2024-02-21T05:57:44;0.50;;;0.10;;
77738;SDS011;66904;59.926;30.404;2024-02-21T06:02:55;0.63;;;0.15;;
77738;SDS011;66904;59.926;30.404;2024-02-21T06:08:06;1.38;;;0.55;;
77738;SDS011;66904;59.926;30.404;2024-02-21T06:13:17;2.17;;;0.50;;
77738;SDS011;66904;59.926;30.404;2024-02-21T06:18:27;0.70;;;0.25;;
77738;SDS011;66904;59.926;30.404;2024-02-21T06:23:38;0.88;;;0.40;;
77738;SDS011;66904;59.926;30.404;2024-02-21T06:28:49;0.55;;;0.20;;
77738;SDS011;66904;59.926;30.404;2024-02-21T06:33:59;1.15;;;0.30;;
77738;SDS011;66904;59.926;30.404;2024-02-21T06:39:10;3.45;;;0.93;;
77738;SDS011;66904;59.926;30.404;2024-02-21T06:44:21;0.52;;;0.30;;
77738;SDS011;66904;59.926;30.404;2024-02-21T06:49:32;1.85;;;0.68;;
77738;SDS011;66904;59.926;30.404;2024-02-21T06:54:43;1.63;;;0.55;;
77738;SDS011;66904;59.926;30.404;2024-02-21T06:59:53;1.20;;;0.55;;
77738;SDS011;66904;59.926;30.404;2024-02-21T07:05:04;0.95;;;0.45;;
77738;SDS011;66904;59.926;30.404;2024-02-21T07:10:15;1.20;;;0.50;;
77738;SDS011;66904;59.926;30.404;2024-02-21T07:15:26;0.93;;;0.38;;
77738;SDS011;66904;59.926;30.404;2024-02-21T07:20:38;0.88;;;0.38;;
77738;SDS011;66904;59.926;30.404;2024-02-21T07:25:51;0.95;;;0.22;;
77738;SDS011;66904;59.926;30.404;2024-02-21T07:31:02;1.90;;;0.60;;
77738;SDS011;66904;59.926;30.404;2024-02-21T07:36:14;0.63;;;0.30;;
77738;SDS011;66904;59.926;30.404;2024-02-21T07:41:26;1.00;;;0.50;;
77738;SDS011;66904;59.926;30.404;2024-02-21T07:46:38;1.83;;;0.80;;
77738;SDS011;66904;59.926;30.404;2024-02-21T07:51:49;1.25;;;0.50;;
77738;SDS011;66904;59.926;30.404;2024-02-21T07:57:00;0.90;;;0.40;;
77738;SDS011;66904;59.926;30.404;2024-02-21T08:02:10;2.53;;;0.70;;
77738;SDS011;66904;59.926;30.404;2024-02-21T08:07:21;1.58;;;0.70;;
77738;SDS011;66904;59.926;30.404;2024-02-21T08:12:32;0.85;;;0.43;;
77738;SDS011;66904;59.926;30.404;2024-02-21T08:17:43;1.73;;;0.80;;
77738;SDS011;66904;59.926;30.404;2024-02-21T08:22:53;2.60;;;0.90;;
77738;SDS011;66904;59.926;30.404;2024-02-21T08:28:04;1.25;;;0.55;;
77738;SDS011;66904;59.926;30.404;2024-02-21T08:33:15;1.10;;;0.50;;
77738;SDS011;66904;59.926;30.404;2024-02-21T08:43:40;1.43;;;0.80;;
77738;SDS011;66904;59.926;30.404;2024-02-21T08:48:51;1.17;;;0.60;;
77738;SDS011;66904;59.926;30.404;2024-02-21T08:54:01;1.38;;;0.70;;
77738;SDS011;66904;59.926;30.404;2024-02-21T08:59:13;1.40;;;0.43;;
77738;SDS011;66904;59.926;30.404;2024-02-21T09:04:25;1.08;;;0.55;;
77738;SDS011;66904;59.926;30.404;2024-02-21T09:09:36;1.08;;;0.65;;
77738;SDS011;66904;59.926;30.404;2024-02-21T09:14:48;0.70;;;0.25;;
77738;SDS011;66904;59.926;30.404;2024-02-21T09:20:00;1.40;;;0.60;;
77738;SDS011;66904;59.926;30.404;2024-02-21T09:25:14;1.48;;;0.47;;
77738;SDS011;66904;59.926;30.404;2024-02-21T09:30:25;4.35;;;0.65;;
77738;SDS011;66904;59.926;30.404;2024-02-21T09:35:36;2.03;;;0.82;;
77738;SDS011;66904;59.926;30.404;2024-02-21T09:40:47;1.80;;;0.75;;
77738;SDS011;66904;59.926;30.404;2024-02-21T09:45:58;2.70;;;0.80;;
77738;SDS011;66904;59.926;30.404;2024-02-21T09:51:09;2.97;;;0.52;;
77738;SDS011;66904;59.926;30.404;2024-02-21T09:56:21;2.00;;;0.77;;
77738;SDS011;66904;59.926;30.404;2024-02-21T10:01:32;1.42;;;0.60;;
77738;SDS011;66904;59.926;30.404;2024-02-21T10:06:43;0.77;;;0.38;;
77738;SDS011;66904;59.926;30.404;2024-02-21T10:11:54;0.80;;;0.45;;
77738;SDS011;66904;59.926;30.404;2024-02-21T10:17:05;2.80;;;0.70;;
77738;SDS011;66904;59.926;30.404;2024-02-21T10:22:19;1.58;;;0.57;;
77738;SDS011;66904;59.926;30.404;2024-02-21T10:27:33;0.95;;;0.45;;
77738;SDS011;66904;59.926;30.404;2024-02-21T10:32:53;1.15;;;0.60;;
77738;SDS011;66904;59.926;30.404;2024-02-21T10:43:14;1.97;;;0.90;;
77738;SDS011;66904;59.926;30.404;2024-02-21T10:48:29;0.85;;;0.38;;
77738;SDS011;66904;59.926;30.404;2024-02-21T10:54:13;3.22;;;0.95;;
77738;SDS011;66904;59.926;30.404;2024-02-21T10:59:45;2.58;;;0.60;;
77738;SDS011;66904;59.926;30.404;2024-02-21T11:04:58;2.22;;;0.65;;
77738;SDS011;66904;59.926;30.404;2024-02-21T11:10:22;2.10;;;0.80;;
77738;SDS011;66904;59.926;30.404;2024-02-21T11:15:34;1.17;;;0.47;;
77738;SDS011;66904;59.926;30.404;2024-02-21T11:20:49;1.70;;;0.52;;
77738;SDS011;66904;59.926;30.404;2024-02-21T11:26:06;2.22;;;1.08;;
77738;SDS011;66904;59.926;30.404;2024-02-21T11:31:18;5.93;;;1.35;;
77738;SDS011;66904;59.926;30.404;2024-02-21T11:36:28;5.07;;;1.45;;
77738;SDS011;66904;59.926;30.404;2024-02-21T11:41:39;3.35;;;1.50;;
77738;SDS011;66904;59.926;30.404;2024-02-21T11:46:50;2.90;;;1.08;;
77738;SDS011;66904;59.926;30.404;2024-02-21T11:52:01;2.47;;;0.98;;
77738;SDS011;66904;59.926;30.404;2024-02-21T11:57:14;1.30;;;0.55;;
77738;SDS011;66904;59.926;30.404;2024-02-21T12:02:26;4.35;;;1.65;;
77738;SDS011;66904;59.926;30.404;2024-02-21T12:07:37;3.45;;;1.35;;
77738;SDS011;66904;59.926;30.404;2024-02-21T12:18:02;2.13;;;1.00;;
77738;SDS011;66904;59.926;30.404;2024-02-21T12:23:13;4.43;;;1.52;;
77738;SDS011;66904;59.926;30.404;2024-02-21T12:28:23;3.35;;;1.50;;
77738;SDS011;66904;59.926;30.404;2024-02-21T12:33:34;3.78;;;1.33;;
77738;SDS011;66904;59.926;30.404;2024-02-21T12:38:45;3.03;;;1.63;;
77738;SDS011;66904;59.926;30.404;2024-02-21T12:43:56;3.00;;;1.40;;
77738;SDS011;66904;59.926;30.404;2024-02-21T12:49:07;2.85;;;0.90;;
77738;SDS011;66904;59.926;30.404;2024-02-21T12:54:18;3.25;;;1.23;;
77738;SDS011;66904;59.926;30.404;2024-02-21T12:59:29;2.65;;;1.33;;
77738;SDS011;66904;59.926;30.404;2024-02-21T13:04:40;2.25;;;0.68;;
77738;SDS011;66904;59.926;30.404;2024-02-21T13:09:51;3.33;;;1.45;;
77738;SDS011;66904;59.926;30.404;2024-02-21T13:15:02;4.00;;;1.58;;
77738;SDS011;66904;59.926;30.404;2024-02-21T13:20:14;4.60;;;1.52;;
77738;SDS011;66904;59.926;30.404;2024-02-21T13:25:25;3.05;;;1.42;;
77738;SDS011;66904;59.926;30.404;2024-02-21T13:30:36;3.15;;;1.30;;
77738;SDS011;66904;59.926;30.404;2024-02-21T13:35:47;3.45;;;1.45;;
77738;SDS011;66904;59.926;30.404;2024-02-21T13:40:58;4.20;;;1.40;;
77738;SDS011;66904;59.926;30.404;2024-02-21T13:46:10;4.15;;;1.35;;
77738;SDS011;66904;59.926;30.404;2024-02-21T13:51:21;4.32;;;1.20;;
77738;SDS011;66904;59.926;30.404;2024-02-21T13:56:32;3.20;;;1.40;;
77738;SDS011;66904;59.926;30.404;2024-02-21T14:01:43;5.28;;;1.88;;
77738;SDS011;66904;59.926;30.404;2024-02-21T14:06:53;4.63;;;1.17;;
77738;SDS011;66904;59.926;30.404;2024-02-21T14:12:04;3.03;;;1.27;;
77738;SDS011;66904;59.926;30.404;2024-02-21T14:17:18;4.45;;;1.50;;
77738;SDS011;66904;59.926;30.404;2024-02-21T14:22:30;4.32;;;1.65;;
77738;SDS011;66904;59.926;30.404;2024-02-21T14:27:41;4.43;;;1.70;;
77738;SDS011;66904;59.926;30.404;2024-02-21T14:32:52;3.15;;;1.45;;
77738;SDS011;66904;59.926;30.404;2024-02-21T14:38:02;3.60;;;0.93;;
77738;SDS011;66904;59.926;30.404;2024-02-21T14:43:13;2.85;;;1.38;;
77738;SDS011;66904;59.926;30.404;2024-02-21T14:48:24;4.00;;;1.80;;
77738;SDS011;66904;59.926;30.404;2024-02-21T14:53:36;2.70;;;1.27;;
77738;SDS011;66904;59.926;30.404;2024-02-21T14:58:47;3.58;;;1.15;;
77738;SDS011;66904;59.926;30.404;2024-02-21T15:03:58;3.28;;;1.65;;
77738;SDS011;66904;59.926;30.404;2024-02-21T15:09:08;4.93;;;1.52;;
77738;SDS011;66904;59.926;30.404;2024-02-21T15:14:19;2.88;;;1.20;;
77738;SDS011;66904;59.926;30.404;2024-02-21T15:19:33;4.85;;;1.98;;
77738;SDS011;66904;59.926;30.404;2024-02-21T15:24:44;2.28;;;0.88;;
77738;SDS011;66904;59.926;30.404;2024-02-21T15:35:10;2.20;;;0.95;;
77738;SDS011;66904;59.926;30.404;2024-02-21T15:40:20;3.72;;;1.63;;
77738;SDS011;66904;59.926;30.404;2024-02-21T15:45:32;2.15;;;0.75;;
77738;SDS011;66904;59.926;30.404;2024-02-21T15:50:42;3.92;;;1.23;;
77738;SDS011;66904;59.926;30.404;2024-02-21T15:55:53;4.20;;;1.58;;
77738;SDS011;66904;59.926;30.404;2024-02-21T16:01:04;5.13;;;2.10;;
77738;SDS011;66904;59.926;30.404;2024-02-21T16:06:14;3.35;;;1.40;;
77738;SDS011;66904;59.926;30.404;2024-02-21T16:11:25;4.57;;;1.58;;
77738;SDS011;66904;59.926;30.404;2024-02-21T16:16:37;3.80;;;1.77;;
77738;SDS011;66904;59.926;30.404;2024-02-21T16:21:50;6.15;;;1.65;;
77738;SDS011;66904;59.926;30.404;2024-02-21T16:27:01;3.20;;;1.33;;
77738;SDS011;66904;59.926;30.404;2024-02-21T16:32:19;3.88;;;1.55;;
77738;SDS011;66904;59.926;30.404;2024-02-21T16:37:29;3.95;;;1.50;;
77738;SDS011;66904;59.926;30.404;2024-02-21T16:42:40;3.97;;;1.60;;
77738;SDS011;66904;59.926;30.404;2024-02-21T16:47:51;3.15;;;1.40;;
77738;SDS011;66904;59.926;30.404;2024-02-21T16:53:02;3.10;;;1.08;;
77738;SDS011;66904;59.926;30.404;2024-02-21T16:58:13;6.63;;;1.33;;
77738;SDS011;66904;59.926;30.404;2024-02-21T17:03:26;3.00;;;1.25;;
77738;SDS011;66904;59.926;30.404;2024-02-21T17:08:36;3.58;;;1.55;;
77738;SDS011;66904;59.926;30.404;2024-02-21T17:13:47;2.88;;;1.15;;
77738;SDS011;66904;59.926;30.404;2024-02-21T17:18:58;3.35;;;1.35;;
77738;SDS011;66904;59.926;30.404;2024-02-21T17:24:09;3.90;;;1.73;;
77738;SDS011;66904;59.926;30.404;2024-02-21T17:29:20;3.85;;;1.38;;
77738;SDS011;66904;59.926;30.404;2024-02-21T17:34:30;2.55;;;1.05;;
77738;SDS011;66904;59.926;30.404;2024-02-21T17:39:41;5.10;;;1.90;;
77738;SDS011;66904;59.926;30.404;2024-02-21T17:44:52;3.83;;;1.65;;
77738;SDS011;66904;59.926;30.404;2024-02-21T17:50:04;4.40;;;1.30;;
77738;SDS011;66904;59.926;30.404;2024-02-21T17:55:15;2.25;;;1.02;;
77738;SDS011;66904;59.926;30.404;2024-02-21T18:00:26;4.10;;;1.70;;
77738;SDS011;66904;59.926;30.404;2024-02-21T18:10:50;4.53;;;1.92;;
77738;SDS011;66904;59.926;30.404;2024-02-21T18:16:02;2.47;;;0.77;;
77738;SDS011;66904;59.926;30.404;2024-02-21T18:21:14;3.42;;;1.40;;
77738;SDS011;66904;59.926;30.404;2024-02-21T18:26:25;3.42;;;1.38;;
77738;SDS011;66904;59.926;30.404;2024-02-21T18:31:35;4.18;;;1.67;;
77738;SDS011;66904;59.926;30.404;2024-02-21T18:36:48;3.42;;;1.63;;
77738;SDS011;66904;59.926;30.404;2024-02-21T18:41:58;3.63;;;1.63;;
77738;SDS011;66904;59.926;30.404;2024-02-21T18:47:09;2.90;;;1.25;;
77738;SDS011;66904;59.926;30.404;2024-02-21T18:52:20;3.30;;;1.55;;
77738;SDS011;66904;59.926;30.404;2024-02-21T18:57:30;2.25;;;0.82;;
77738;SDS011;66904;59.926;30.404;2024-02-21T19:02:43;2.47;;;0.65;;
77738;SDS011;66904;59.926;30.404;2024-02-21T19:07:54;4.85;;;1.20;;
77738;SDS011;66904;59.926;30.404;2024-02-21T19:13:04;2.88;;;1.33;;
77738;SDS011;66904;59.926;30.404;2024-02-21T19:18:15;2.85;;;1.45;;
77738;SDS011;66904;59.926;30.404;2024-02-21T19:23:26;3.88;;;2.03;;
77738;SDS011;66904;59.926;30.404;2024-02-21T19:28:38;4.13;;;1.80;;
77738;SDS011;66904;59.926;30.404;2024-02-21T19:33:49;4.35;;;1.70;;
77738;SDS011;66904;59.926;30.404;2024-02-21T19:39:00;3.92;;;1.58;;
77738;SDS011;66904;59.926;30.404;2024-02-21T19:44:11;1.58;;;0.88;;
77738;SDS011;66904;59.926;30.404;2024-02-21T19:49:22;3.83;;;2.03;;
77738;SDS011;66904;59.926;30.404;2024-02-21T19:54:34;1.73;;;0.68;;
77738;SDS011;66904;59.926;30.404;2024-02-21T19:59:44;2.72;;;0.77;;
77738;SDS011;66904;59.926;30.404;2024-02-21T20:04:55;4.10;;;1.58;;
77738;SDS011;66904;59.926;30.404;2024-02-21T20:10:06;2.80;;;1.23;;
77738;SDS011;66904;59.926;30.404;2024-02-21T20:15:17;5.32;;;1.58;;
77738;SDS011;66904;59.926;30.404;2024-02-21T20:20:28;2.92;;;1.25;;
77738;SDS011;66904;59.926;30.404;2024-02-21T20:25:41;1.48;;;0.85;;
77738;SDS011;66904;59.926;30.404;2024-02-21T20:30:52;2.58;;;1.35;;
77738;SDS011;66904;59.926;30.404;2024-02-21T20:36:03;3.28;;;1.27;;
77738;SDS011;66904;59.926;30.404;2024-02-21T20:41:18;3.80;;;1.50;;
77738;SDS011;66904;59.926;30.404;2024-02-21T20:46:29;1.63;;;0.93;;
77738;SDS011;66904;59.926;30.404;2024-02-21T20:51:40;2.30;;;1.20;;
77738;SDS011;66904;59.926;30.404;2024-02-21T20:56:51;1.55;;;0.65;;
77738;SDS011;66904;59.926;30.404;2024-02-21T21:02:02;1.80;;;0.80;;
77738;SDS011;66904;59.926;30.404;2024-02-21T21:07:13;4.13;;;1.90;;
77738;SDS011;66904;59.926;30.404;2024-02-21T21:12:23;3.75;;;1.65;;
77738;SDS011;66904;59.926;30.404;2024-02-21T21:17:34;5.43;;;1.50;;
77738;SDS011;66904;59.926;30.404;2024-02-21T21:22:45;4.50;;;2.13;;
77738;SDS011;66904;59.926;30.404;2024-02-21T21:27:56;3.08;;;1.33;;
77738;SDS011;66904;59.926;30.404;2024-02-21T21:33:07;2.90;;;1.40;;
77738;SDS011;66904;59.926;30.404;2024-02-21T21:38:18;3.38;;;1.70;;
77738;SDS011;66904;59.926;30.404;2024-02-21T21:43:31;4.30;;;1.17;;
77738;SDS011;66904;59.926;30.404;2024-02-21T21:48:41;3.40;;;1.10;;
77738;SDS011;66904;59.926;30.404;2024-02-21T21:53:53;4.10;;;1.65;;
77738;SDS011;66904;59.926;30.404;2024-02-21T21:59:04;4.68;;;1.98;;
77738;SDS011;66904;59.926;30.404;2024-02-21T22:04:14;3.47;;;1.50;;
77738;SDS011;66904;59.926;30.404;2024-02-21T22:09:26;2.85;;;1.13;;
77738;SDS011;66904;59.926;30.404;2024-02-21T22:14:36;2.20;;;1.30;;
77738;SDS011;66904;59.926;30.404;2024-02-21T22:19:47;2.22;;;1.00;;
77738;SDS011;66904;59.926;30.404;2024-02-21T22:24:58;4.20;;;2.05;;
77738;SDS011;66904;59.926;30.404;2024-02-21T22:30:08;3.55;;;1.33;;
77738;SDS011;66904;59.926;30.404;2024-02-21T22:35:21;3.40;;;1.10;;
77738;SDS011;66904;59.926;30.404;2024-02-21T22:40:32;5.03;;;1.95;;
77738;SDS011;66904;59.926;30.404;2024-02-21T22:45:42;2.65;;;1.05;;
77738;SDS011;66904;59.926;30.404;2024-02-21T22:50:53;3.20;;;1.38;;
77738;SDS011;66904;59.926;30.404;2024-02-21T22:56:04;3.63;;;1.70;;
77738;SDS011;66904;59.926;30.404;2024-02-21T23:01:15;2.90;;;1.00;;
77738;SDS011;66904;59.926;30.404;2024-02-21T23:06:27;2.20;;;1.15;;
77738;SDS011;66904;59.926;30.404;2024-02-21T23:11:38;1.67;;;1.00;;
77738;SDS011;66904;59.926;30.404;2024-02-21T23:16:48;2.95;;;1.13;;
77738;SDS011;66904;59.926;30.404;2024-02-21T23:21:59;3.25;;;1.45;;
77738;SDS011;66904;59.926;30.404;2024-02-21T23:27:11;2.50;;;1.10;;
77738;SDS011;66904;59.926;30.404;2024-02-21T23:32:22;2.15;;;1.00;;
77738;SDS011;66904;59.926;30.404;2024-02-21T23:37:32;1.98;;;1.10;;
77738;SDS011;66904;59.926;30.404;2024-02-21T23:42:43;3.22;;;0.90;;
77738;SDS011;66904;59.926;30.404;2024-02-21T23:47:55;2.85;;;1.58;;
77738;SDS011;66904;59.926;30.404;2024-02-21T23:53:05;3.30;;;1.48;;
77738;SDS011;66904;59.926;30.404;2024-02-21T23:58:16;3.30;;;1.52;;
